Time;durP1;ratioP1;P1;durP2;ratioP2;P2;SDS_P1;SDS_P2;PMS_P1;PMS_P2;Temp;Humidity;BMP_temperature;BMP_pressure;BME280_temperature;BME280_humidity;BME280_pressure;Samples;Min_cycle;Max_cycle;Signal;HPM_P1;HPM_P2
2022/04/06 00:01:31;;;;;;;8.90;2.67;;;;;;;9.30;61.42;99434.09;4850465;28;120629;-81
2022/04/06 00:03:56;;;;;;;8.55;2.65;;;;;;;9.27;61.93;99435.03;4835647;28;122696;-81
2022/04/06 00:06:22;;;;;;;8.88;2.70;;;;;;;9.26;62.38;99437.00;4855993;28;123203;-81
2022/04/06 00:08:48;;;;;;;7.20;2.22;;;;;;;9.34;62.31;99448.31;4838102;28;119672;-81
2022/04/06 00:11:14;;;;;;;6.57;2.42;;;;;;;9.27;62.43;99424.09;4820359;28;122204;-81
2022/04/06 00:13:39;;;;;;;7.57;2.40;;;;;;;9.29;62.75;99424.38;4877020;28;120344;-81
2022/04/06 00:16:05;;;;;;;7.82;2.15;;;;;;;9.25;62.06;99421.06;4820570;28;121713;-82
2022/04/06 00:18:30;;;;;;;8.20;2.58;;;;;;;9.26;62.16;99428.81;4859489;28;122786;-82
2022/04/06 00:20:56;;;;;;;7.85;2.20;;;;;;;9.27;62.36;99429.56;4835555;28;119649;-82
2022/04/06 00:23:21;;;;;;;9.05;2.40;;;;;;;9.17;61.84;99415.19;4859088;28;119595;-80
2022/04/06 00:25:47;;;;;;;5.43;2.10;;;;;;;9.15;61.86;99412.94;4841652;28;122683;-80
2022/04/06 00:28:12;;;;;;;5.90;2.60;;;;;;;9.15;61.88;99407.47;4841125;28;119995;-80
2022/04/06 00:30:38;;;;;;;10.38;2.58;;;;;;;9.16;61.55;99406.22;4835185;28;120510;-79
2022/04/06 00:33:04;;;;;;;7.13;2.80;;;;;;;9.09;61.68;99392.19;4840909;28;119723;-79
2022/04/06 00:35:30;;;;;;;7.53;2.55;;;;;;;9.03;62.56;99392.09;4838089;28;119929;-79
2022/04/06 00:38:01;;;;;;;9.82;3.30;;;;;;;9.06;62.33;99382.94;4837152;28;119976;-82
2022/04/06 00:40:27;;;;;;;6.35;2.78;;;;;;;9.15;62.24;99401.25;4838286;28;119388;-80
2022/04/06 00:42:53;;;;;;;4.97;2.40;;;;;;;9.09;61.70;99379.25;4850919;28;121946;-79
2022/04/06 00:45:22;;;;;;;7.57;3.15;;;;;;;9.09;62.78;99384.72;4832173;28;120200;-80
2022/04/06 00:47:49;;;;;;;7.10;3.60;;;;;;;9.12;62.20;99374.81;4835953;28;120495;-79
2022/04/06 00:50:15;;;;;;;10.30;3.20;;;;;;;9.09;62.55;99368.31;4829293;28;120083;-79
2022/04/06 00:52:41;;;;;;;6.35;2.83;;;;;;;9.04;62.12;99358.03;4878426;28;119714;-80
2022/04/06 00:55:08;;;;;;;6.82;2.95;;;;;;;9.07;62.64;99348.88;4878534;28;119404;-79
2022/04/06 00:57:35;;;;;;;8.93;3.22;;;;;;;9.12;62.76;99355.69;4868727;28;120318;-80
2022/04/06 01:00:02;;;;;;;5.80;2.65;;;;;;;9.12;62.43;99345.50;4853384;28;119454;-81
2022/04/06 01:02:28;;;;;;;6.15;3.08;;;;;;;9.13;62.97;99341.53;4860954;28;119508;-81
2022/04/06 01:04:53;;;;;;;7.00;2.35;;;;;;;9.10;62.19;99330.78;4860257;28;119502;-81
2022/04/06 01:07:22;;;;;;;4.30;2.10;;;;;;;9.15;62.52;99335.59;4857302;28;119547;-81
2022/04/06 01:09:48;;;;;;;4.68;2.10;;;;;;;9.15;62.09;99339.06;4855796;28;119762;-82
2022/04/06 01:12:14;;;;;;;6.03;2.40;;;;;;;9.14;61.91;99331.34;4874802;28;119891;-81
2022/04/06 01:14:42;;;;;;;6.15;2.40;;;;;;;9.10;62.46;99320.59;4854919;28;119797;-81
2022/04/06 01:17:09;;;;;;;7.43;2.65;;;;;;;9.10;62.58;99320.59;4861144;28;119489;-81
2022/04/06 01:19:40;;;;;;;4.45;2.28;;;;;;;9.01;62.84;99303.53;4845676;28;119775;-81
2022/04/06 01:22:17;;;;;;;6.13;2.17;;;;;;;9.05;62.45;99307.59;4875327;28;119794;-79
2022/04/06 01:24:44;;;;;;;6.95;2.58;;;;;;;9.09;62.67;99305.41;4849904;28;120023;-81
2022/04/06 01:27:10;;;;;;;5.32;2.67;;;;;;;9.09;63.03;99299.19;4854068;28;120209;-82
2022/04/06 01:29:37;;;;;;;7.75;2.80;;;;;;;9.02;62.60;99292.13;4854970;28;119743;-81
2022/04/06 01:32:19;;;;;;;6.60;2.70;;;;;;;9.07;62.81;99298.91;4837100;28;122997;-79
2022/04/06 01:34:46;;;;;;;7.35;2.80;;;;;;;9.02;63.00;99296.84;4843338;28;119700;-81
2022/04/06 01:37:13;;;;;;;6.75;2.60;;;;;;;9.04;62.20;99299.84;4840313;28;121480;-82
2022/04/06 01:39:44;;;;;;;5.45;2.50;;;;;;;9.03;63.08;99301.09;4827803;28;122761;-81
2022/04/06 01:42:15;;;;;;;7.38;2.42;;;;;;;9.01;62.88;99290.63;4840705;28;122001;-81
2022/04/06 01:44:41;;;;;;;6.38;2.70;;;;;;;8.88;62.94;99271.75;4840022;28;122771;-82
2022/04/06 01:47:08;;;;;;;5.50;3.05;;;;;;;8.99;62.82;99289.56;4844306;28;119402;-82
2022/04/06 01:52:20;;;;;;;6.55;2.80;;;;;;;8.97;63.20;99276.34;4835539;28;123195;-82
2022/04/06 01:54:50;;;;;;;6.88;3.42;;;;;;;8.97;63.37;99275.59;4831731;28;119499;-81
2022/04/06 01:57:17;;;;;;;8.10;3.38;;;;;;;8.96;63.57;99276.84;4825305;28;121590;-81
2022/04/06 01:59:44;;;;;;;5.05;3.25;;;;;;;9.00;63.92;99266.47;4831499;28;122455;-79
2022/04/06 02:02:11;;;;;;;6.80;3.33;;;;;;;8.98;63.18;99264.19;4863270;28;119741;-82
2022/04/06 02:04:38;;;;;;;8.38;3.75;;;;;;;8.97;63.68;99261.94;4840214;28;123113;-81
2022/04/06 02:07:05;;;;;;;6.95;3.70;;;;;;;9.04;63.76;99256.09;4840374;28;119711;-81
2022/04/06 02:09:30;;;;;;;7.43;3.95;;;;;;;9.05;63.82;99241.94;4853626;28;122388;-80
2022/04/06 02:11:56;;;;;;;7.13;4.38;;;;;;;9.02;64.52;99223.00;4824756;28;122826;-81
2022/04/06 02:14:23;;;;;;;7.68;4.50;;;;;;;8.95;63.99;99226.84;4839707;28;119715;-81
2022/04/06 02:16:49;;;;;;;6.45;4.20;;;;;;;8.97;64.03;99240.81;4843934;28;120045;-81
2022/04/06 02:19:14;;;;;;;7.40;4.43;;;;;;;8.92;64.12;99223.09;4852287;28;123462;-81
2022/04/06 02:21:40;;;;;;;8.90;4.60;;;;;;;8.99;64.70;99221.97;4855831;28;119615;-81
2022/04/06 02:24:06;;;;;;;8.52;4.50;;;;;;;9.03;64.34;99225.25;4863366;28;120160;-81
2022/04/06 02:26:31;;;;;;;9.18;4.95;;;;;;;9.01;64.05;99214.03;4825935;28;119448;-82
2022/04/06 02:28:59;;;;;;;7.47;4.95;;;;;;;9.01;64.66;99208.56;4844588;28;121746;-81
2022/04/06 02:31:24;;;;;;;8.35;4.72;;;;;;;8.96;64.31;99195.56;4869934;28;119988;-82
2022/04/06 02:33:50;;;;;;;9.73;5.22;;;;;;;9.03;64.34;99191.69;4840245;28;120049;-81
2022/04/06 02:36:16;;;;;;;8.45;5.10;;;;;;;8.99;64.40;99188.38;4838567;28;121710;-81
2022/04/06 02:38:42;;;;;;;9.40;5.40;;;;;;;9.01;64.95;99194.16;4809619;28;121863;-81
2022/04/06 02:41:11;;;;;;;9.82;6.15;;;;;;;9.02;64.61;99192.91;4863236;28;119577;-81
2022/04/06 02:43:36;;;;;;;9.45;6.30;;;;;;;8.94;65.17;99170.66;4855613;28;122328;-81
2022/04/06 02:46:02;;;;;;;8.77;6.38;;;;;;;9.05;65.51;99167.34;4858145;28;119708;-81
2022/04/06 02:48:28;;;;;;;7.70;6.60;;;;;;;9.14;64.93;99178.16;4861977;28;119951;-82
2022/04/06 02:50:54;;;;;;;7.03;6.30;;;;;;;9.09;64.53;99154.22;4860234;28;120565;-82
2022/04/06 02:53:20;;;;;;;10.40;7.25;;;;;;;9.10;64.84;99156.47;4844124;28;119813;-81
2022/04/06 02:55:45;;;;;;;8.10;7.30;;;;;;;9.18;65.51;99162.28;4843309;28;122024;-81
2022/04/06 02:58:11;;;;;;;9.32;7.60;;;;;;;9.17;65.21;99166.25;4848000;28;122646;-81
2022/04/06 03:00:36;;;;;;;9.27;7.50;;;;;;;9.12;65.27;99153.28;4864461;28;119348;-81
2022/04/06 03:03:03;;;;;;;8.88;7.65;;;;;;;9.18;65.59;99157.56;4854172;28;119672;-81
2022/04/06 03:05:28;;;;;;;8.88;7.53;;;;;;;9.20;65.40;99152.38;4851884;28;119939;-80
2022/04/06 03:07:57;;;;;;;8.75;7.95;;;;;;;9.20;65.33;99137.94;4882181;28;120705;-79
2022/04/06 03:10:22;;;;;;;9.35;7.97;;;;;;;9.27;65.29;99134.81;4877176;28;120323;-81
2022/04/06 03:12:48;;;;;;;10.45;8.85;;;;;;;9.23;65.58;99115.88;4867538;28;119538;-81
2022/04/06 03:15:14;;;;;;;10.07;8.90;;;;;;;9.25;65.28;99126.34;4865977;28;119514;-80
2022/04/06 03:17:41;;;;;;;9.85;8.73;;;;;;;9.19;65.42;99115.31;4864471;28;122681;-80
2022/04/06 03:20:08;;;;;;;9.57;8.48;;;;;;;9.29;65.59;99129.63;4843615;28;119810;-80
2022/04/06 03:22:36;;;;;;;9.45;8.32;;;;;;;9.17;65.00;99117.78;4867505;28;120304;-80
2022/04/06 03:25:02;;;;;;;9.38;8.48;;;;;;;9.27;65.59;99126.63;4862462;28;123512;-80
2022/04/06 03:27:28;;;;;;;11.85;9.75;;;;;;;9.27;66.43;99123.13;4847374;28;119954;-80
2022/04/06 03:29:54;;;;;;;9.82;8.88;;;;;;;9.29;66.37;99115.94;4834021;28;122910;-82
2022/04/06 03:32:19;;;;;;;11.27;10.15;;;;;;;9.30;66.29;99106.50;4863842;28;119518;-80
2022/04/06 03:34:45;;;;;;;12.00;9.82;;;;;;;9.34;66.11;99109.03;4850437;28;120636;-80
2022/04/06 03:37:10;;;;;;;11.82;10.13;;;;;;;9.33;65.65;99096.59;4865853;28;122844;-80
2022/04/06 03:39:36;;;;;;;11.00;9.90;;;;;;;9.31;66.48;99088.84;4862991;28;119771;-80
2022/04/06 03:42:02;;;;;;;12.65;10.73;;;;;;;9.41;66.05;99092.94;4835540;28;121854;-81
2022/04/06 03:44:27;;;;;;;12.07;10.15;;;;;;;9.35;66.44;99080.44;4882248;28;119642;-79
2022/04/06 03:46:56;;;;;;;10.68;9.10;;;;;;;9.39;66.50;99070.78;4846286;28;119620;-80
2022/04/06 03:49:22;;;;;;;11.80;10.35;;;;;;;9.51;66.87;99074.41;4844816;28;120735;-79
2022/04/06 03:51:47;;;;;;;11.07;9.73;;;;;;;9.49;66.66;99071.41;4864712;28;120317;-79
2022/04/06 03:54:13;;;;;;;10.15;8.80;;;;;;;9.60;67.30;99076.22;4864523;28;120879;-80
2022/04/06 03:56:39;;;;;;;10.88;8.75;;;;;;;9.60;67.26;99066.03;4835289;28;122913;-80
2022/04/06 03:59:04;;;;;;;10.52;8.13;;;;;;;9.63;67.75;99065.06;4872121;28;119321;-80
2022/04/06 04:01:31;;;;;;;10.02;8.18;;;;;;;9.70;67.30;99059.19;4883720;28;120106;-82
2022/04/06 04:03:57;;;;;;;9.00;8.10;;;;;;;9.79;67.72;99067.22;4862758;28;120341;-80
2022/04/06 04:06:22;;;;;;;9.27;7.78;;;;;;;9.91;67.84;99067.31;4839194;28;120268;-80
2022/04/06 04:08:48;;;;;;;8.95;7.60;;;;;;;9.90;68.02;99046.63;4837493;28;119569;-81
2022/04/06 04:11:14;;;;;;;9.05;6.72;;;;;;;10.04;67.79;99054.00;4854579;28;123001;-80
2022/04/06 04:13:39;;;;;;;9.95;5.85;;;;;;;10.02;68.58;99029.81;4851256;28;119998;-80
2022/04/06 04:16:06;;;;;;;12.73;6.65;;;;;;;10.13;69.03;99027.16;4884843;28;119754;-80
2022/04/06 04:18:31;;;;;;;11.05;6.38;;;;;;;10.30;69.80;99041.03;4867428;28;120594;-82
2022/04/06 04:23:41;;;;;;;14.45;6.63;;;;;;;10.59;70.61;99026.25;4858598;28;122705;-81
2022/04/06 04:26:07;;;;;;;19.30;6.72;;;;;;;10.70;71.04;99015.34;4855867;28;119718;-81
2022/04/06 04:28:36;;;;;;;11.73;5.97;;;;;;;10.83;71.23;99020.38;4840967;28;122345;-81
2022/04/06 04:31:01;;;;;;;21.05;8.30;;;;;;;10.91;70.98;99020.69;4839125;28;120459;-83
2022/04/06 04:33:27;;;;;;;22.50;8.73;;;;;;;10.92;71.03;99003.00;4860082;28;119853;-83
2022/04/06 04:35:56;;;;;;;26.15;10.05;;;;;;;11.11;70.85;99017.00;4855500;28;119866;-85
2022/04/06 04:38:22;;;;;;;26.67;9.68;;;;;;;11.20;70.79;99027.78;4856080;28;119735;-83
2022/04/06 04:40:51;;;;;;;29.58;11.38;;;;;;;11.29;70.72;99027.53;4845415;28;121718;-86
2022/04/06 04:43:17;;;;;;;35.90;12.13;;;;;;;11.34;70.22;99026.81;4853287;28;120041;-82
2022/04/06 04:45:42;;;;;;;31.48;11.63;;;;;;;11.33;70.40;99014.31;4855716;28;119501;-83
2022/04/06 04:48:11;;;;;;;34.25;11.32;;;;;;;11.44;70.22;99011.63;4824482;28;122225;-82
2022/04/06 04:50:36;;;;;;;34.08;12.43;;;;;;;11.53;69.74;99016.88;4855378;28;123012;-83
2022/04/06 04:53:02;;;;;;;38.85;12.75;;;;;;;11.54;69.35;99006.63;4876478;28;119473;-81
2022/04/06 04:55:27;;;;;;;39.60;11.95;;;;;;;11.52;69.74;99003.66;4854526;28;120413;-85
2022/04/06 04:57:53;;;;;;;42.00;13.30;;;;;;;11.61;69.04;99015.16;4836498;28;120038;-82
2022/04/06 05:00:19;;;;;;;38.25;12.57;;;;;;;11.53;69.07;98988.66;4821949;28;122128;-82
2022/04/06 05:02:44;;;;;;;35.35;12.02;;;;;;;11.57;69.45;99000.16;4854439;28;122720;-84
2022/04/06 05:05:11;;;;;;;31.58;11.77;;;;;;;11.67;69.56;99009.66;4839844;28;119559;-85
2022/04/06 05:07:37;;;;;;;31.77;11.27;;;;;;;11.65;69.15;99001.94;4851695;28;121684;-82
2022/04/06 05:10:08;;;;;;;35.83;12.27;;;;;;;11.65;69.40;98990.94;4870808;28;119875;-84
2022/04/06 05:12:34;;;;;;;31.88;11.25;;;;;;;11.68;69.16;98983.69;4823557;28;121146;-83
2022/04/06 05:15:00;;;;;;;29.15;10.10;;;;;;;11.76;69.98;98994.94;4858826;28;119943;-83
2022/04/06 05:17:26;;;;;;;32.78;10.75;;;;;;;11.80;69.81;98987.22;4840202;28;122177;-84
2022/04/06 05:19:52;;;;;;;23.83;9.88;;;;;;;11.83;69.96;98976.00;4872023;28;120204;-81
2022/04/06 05:22:18;;;;;;;30.90;11.57;;;;;;;11.91;69.44;98979.75;4870342;28;119889;-84
2022/04/06 05:24:44;;;;;;;26.30;9.48;;;;;;;11.92;69.75;98975.75;4840582;28;120247;-81
2022/04/06 05:27:09;;;;;;;24.33;9.25;;;;;;;12.00;70.11;98964.97;4820536;28;121756;-87
2022/04/06 05:29:35;;;;;;;31.85;10.50;;;;;;;11.96;69.18;98964.50;4855277;28;123249;-84
2022/04/06 05:32:01;;;;;;;33.03;10.55;;;;;;;12.02;69.18;98973.47;4855941;28;119613;-82
2022/04/06 05:34:26;;;;;;;33.25;10.55;;;;;;;12.01;69.32;98936.25;4837058;28;121814;-83
2022/04/06 05:36:52;;;;;;;33.30;11.30;;;;;;;12.06;68.49;98954.72;4850030;28;122448;-83
2022/04/06 05:39:18;;;;;;;35.88;12.35;;;;;;;12.04;68.33;98951.72;4839118;28;121737;-85
2022/04/06 05:41:43;;;;;;;34.30;11.45;;;;;;;11.99;68.21;98950.50;4855189;28;120119;-84
2022/04/06 05:44:09;;;;;;;34.20;11.30;;;;;;;12.01;68.51;98954.75;4853145;28;120025;-80
2022/04/06 05:46:34;;;;;;;34.08;11.80;;;;;;;11.99;69.08;98941.50;4852256;28;122322;-83
2022/04/06 05:49:00;;;;;;;35.50;11.18;;;;;;;12.12;68.72;98957.50;4824325;28;122703;-83
2022/04/06 05:51:25;;;;;;;36.75;10.93;;;;;;;12.05;68.75;98947.72;4839787;28;119577;-82
2022/04/06 05:53:51;;;;;;;30.85;10.35;;;;;;;12.13;68.98;98951.50;4868777;28;119846;-82
2022/04/06 05:56:16;;;;;;;35.08;10.68;;;;;;;12.08;69.01;98944.00;4836491;28;121162;-82
2022/04/06 05:58:43;;;;;;;36.03;9.52;;;;;;;12.09;68.62;98956.50;4859842;28;119977;-85
2022/04/06 06:01:11;;;;;;;30.77;10.77;;;;;;;12.08;68.71;98938.50;4869383;28;119849;-82
2022/04/06 06:03:37;;;;;;;26.98;8.60;;;;;;;12.07;68.93;98950.75;4816373;28;119802;-81
2022/04/06 06:06:03;;;;;;;27.10;8.43;;;;;;;12.15;68.87;98948.22;4852291;28;120031;-83
2022/04/06 06:08:28;;;;;;;24.13;8.02;;;;;;;12.20;68.88;98952.97;4839366;28;122595;-83
2022/04/06 06:10:55;;;;;;;24.83;8.05;;;;;;;12.20;68.96;98939.22;4842881;28;119816;-85
2022/04/06 06:13:21;;;;;;;17.50;6.45;;;;;;;12.19;69.03;98941.22;4826012;28;122571;-85
2022/04/06 06:15:49;;;;;;;18.13;6.90;;;;;;;12.11;69.00;98942.25;4823556;28;122673;-84
2022/04/06 06:18:15;;;;;;;12.27;5.85;;;;;;;12.09;69.21;98940.00;4863095;28;119606;-84
2022/04/06 06:20:41;;;;;;;17.40;6.38;;;;;;;12.18;69.47;98947.97;4876187;28;119380;-85
2022/04/06 06:23:07;;;;;;;12.65;5.40;;;;;;;12.12;69.15;98939.00;4831564;28;119994;-84
2022/04/06 06:25:33;;;;;;;11.20;5.65;;;;;;;12.17;69.53;98948.47;4853499;28;121758;-83
2022/04/06 06:27:58;;;;;;;15.07;5.80;;;;;;;12.15;69.35;98948.97;4858159;28;121183;-83
2022/04/06 06:30:27;;;;;;;13.70;5.72;;;;;;;12.18;69.87;98947.22;4840800;28;119625;-83
2022/04/06 06:32:53;;;;;;;9.82;4.93;;;;;;;12.22;69.92;98940.22;4857240;28;121760;-83
2022/04/06 06:35:20;;;;;;;12.73;5.38;;;;;;;12.24;69.03;98950.72;4828533;28;122729;-82
2022/04/06 06:37:50;;;;;;;11.20;5.55;;;;;;;12.26;69.15;98950.94;4852959;28;119494;-84
2022/04/06 06:40:18;;;;;;;11.23;4.85;;;;;;;12.19;69.21;98943.97;4843078;28;119844;-82
2022/04/06 06:42:44;;;;;;;9.88;4.65;;;;;;;12.26;69.62;98959.94;4878156;28;120122;-83
2022/04/06 06:45:11;;;;;;;11.32;5.30;;;;;;;12.20;69.53;98939.97;4856088;28;121968;-82
2022/04/06 06:47:40;;;;;;;10.38;5.07;;;;;;;12.21;69.32;98944.22;4838355;28;123854;-81
2022/04/06 06:50:07;;;;;;;9.10;5.18;;;;;;;12.21;69.24;98946.97;4865442;28;119783;-84
2022/04/06 06:52:34;;;;;;;17.13;7.03;;;;;;;12.23;69.36;98938.22;4868613;28;121120;-84
2022/04/06 06:55:04;;;;;;;15.02;6.25;;;;;;;12.23;69.22;98929.97;4857332;28;122253;-83
2022/04/06 06:57:30;;;;;;;15.90;6.78;;;;;;;12.25;69.23;98941.94;4857637;28;119880;-82
2022/04/06 06:59:55;;;;;;;14.55;6.78;;;;;;;12.31;69.31;98938.47;4857348;28;119870;-82
2022/04/06 07:02:21;;;;;;;15.07;7.18;;;;;;;12.20;69.04;98923.47;4839575;28;122575;-80
2022/04/06 07:04:47;;;;;;;17.65;7.43;;;;;;;12.29;69.29;98927.94;4839433;28;121655;-81
2022/04/06 07:07:12;;;;;;;18.88;7.68;;;;;;;12.27;69.15;98933.94;4833076;28;123352;-81
2022/04/06 07:09:38;;;;;;;21.20;8.10;;;;;;;12.39;69.52;98958.69;4836014;28;120095;-82
2022/04/06 07:12:04;;;;;;;20.13;8.20;;;;;;;12.35;69.06;98927.94;4857029;28;119464;-81
2022/04/06 07:14:29;;;;;;;24.38;8.55;;;;;;;12.41;69.51;98953.41;4856771;28;121977;-81
2022/04/06 07:16:55;;;;;;;19.80;9.48;;;;;;;12.45;69.43;98962.91;4837964;28;120278;-82
2022/04/06 07:19:21;;;;;;;22.88;9.48;;;;;;;12.44;68.99;98953.16;4868584;28;120047;-82
2022/04/06 07:21:50;;;;;;;26.50;9.35;;;;;;;12.47;68.96;98934.91;4838365;28;121852;-81
2022/04/06 07:24:16;;;;;;;32.72;11.18;;;;;;;12.50;68.59;98942.88;4860854;28;120188;-84
2022/04/06 07:26:42;;;;;;;29.80;11.23;;;;;;;12.52;68.86;98945.88;4814943;28;122889;-82
2022/04/06 07:29:11;;;;;;;29.50;11.43;;;;;;;12.59;68.43;98941.88;4854401;28;119632;-84
2022/04/06 07:31:42;;;;;;;24.77;10.68;;;;;;;12.57;68.48;98936.13;4837573;28;122229;-83
2022/04/06 07:34:09;;;;;;;29.15;11.43;;;;;;;12.57;68.61;98934.13;4852682;28;120048;-84
2022/04/06 07:36:35;;;;;;;33.90;12.85;;;;;;;12.57;68.14;98927.88;4839375;28;119811;-81
2022/04/06 07:39:03;;;;;;;36.90;12.07;;;;;;;12.62;68.14;98929.84;4819506;28;122908;-83
2022/04/06 07:41:32;;;;;;;36.13;13.27;;;;;;;12.63;67.87;98928.59;4856278;28;122971;-85
2022/04/06 07:43:58;;;;;;;38.00;13.02;;;;;;;12.56;68.06;98921.63;4823108;28;120098;-82
2022/04/06 07:46:24;;;;;;;30.25;10.43;;;;;;;12.57;68.57;98936.13;4848326;28;120494;-81
2022/04/06 07:48:50;;;;;;;29.73;11.60;;;;;;;12.67;68.35;98928.34;4839018;28;120650;-83
2022/04/06 07:51:16;;;;;;;38.58;11.65;;;;;;;12.62;68.31;98916.09;4827321;28;121888;-81
2022/04/06 07:53:41;;;;;;;32.58;11.55;;;;;;;12.74;68.24;98928.53;4855561;28;120787;-81
2022/04/06 07:56:07;;;;;;;37.22;12.82;;;;;;;12.71;67.72;98926.06;4837902;28;119969;-79
2022/04/06 07:58:34;;;;;;;41.63;12.77;;;;;;;12.81;68.33;98939.03;4841079;28;122476;-82
2022/04/06 08:01:05;;;;;;;37.08;12.07;;;;;;;12.87;67.86;98937.00;4838763;28;120286;-81
2022/04/06 08:03:31;;;;;;;35.80;12.35;;;;;;;12.84;67.87;98918.75;4846451;28;119652;-81
2022/04/06 08:05:57;;;;;;;34.55;11.43;;;;;;;12.97;67.55;98920.16;4855739;28;120030;-80
2022/04/06 08:08:25;;;;;;;42.17;10.93;;;;;;;12.98;67.53;98921.66;4844176;28;121119;-82
2022/04/06 08:10:51;;;;;;;35.45;11.30;;;;;;;13.03;67.63;98937.41;4839435;28;122526;-82
2022/04/06 08:13:16;;;;;;;37.50;10.38;;;;;;;13.06;67.59;98922.63;4869212;28;120064;-80
2022/04/06 08:15:42;;;;;;;35.55;11.55;;;;;;;13.04;67.38;98930.66;4856830;28;120041;-82
2022/04/06 08:18:08;;;;;;;38.38;11.13;;;;;;;13.05;67.18;98919.13;4834277;28;122227;-83
2022/04/06 08:20:34;;;;;;;44.95;11.73;;;;;;;13.08;66.91;98920.13;4854091;28;119940;-81
2022/04/06 08:22:59;;;;;;;36.95;11.50;;;;;;;13.14;66.98;98915.31;4841108;28;119613;-82
2022/04/06 08:25:33;;;;;;;34.15;10.65;;;;;;;13.17;66.90;98911.53;4873419;28;119707;-82
2022/04/06 08:28:10;;;;;;;39.03;11.65;;;;;;;13.19;66.33;98912.56;4856825;28;120456;-83
2022/04/06 08:30:44;;;;;;;32.20;11.15;;;;;;;13.29;66.38;98912.25;4877228;28;121036;-82
2022/04/06 08:33:12;;;;;;;39.88;10.70;;;;;;;13.25;66.20;98909.78;4853528;28;119943;-83
2022/04/06 08:35:39;;;;;;;34.47;9.90;;;;;;;13.26;66.62;98927.06;4839782;28;121334;-81
2022/04/06 08:38:05;;;;;;;42.60;12.25;;;;;;;13.26;66.45;98918.78;4821936;28;122262;-82
2022/04/06 08:40:32;;;;;;;41.97;11.80;;;;;;;13.14;66.15;98902.31;4841554;28;120109;-83
2022/04/06 08:42:59;;;;;;;42.58;12.05;;;;;;;13.27;66.73;98920.28;4839566;28;119975;-82
2022/04/06 08:45:42;;;;;;;40.13;11.05;;;;;;;13.28;66.61;98913.53;4854284;28;122368;-83
2022/04/06 08:48:10;;;;;;;40.90;11.25;;;;;;;13.32;66.32;98923.00;4853259;28;120251;-83
2022/04/06 08:50:38;;;;;;;40.97;11.82;;;;;;;13.30;66.47;98906.25;4856042;28;119803;-85
2022/04/06 08:53:05;;;;;;;40.35;10.95;;;;;;;13.29;66.10;98902.00;4853090;28;120059;-81
2022/04/06 08:55:33;;;;;;;34.53;10.48;;;;;;;13.28;66.66;98908.00;4838366;28;120063;-83
2022/04/06 08:58:01;;;;;;;42.35;11.43;;;;;;;13.40;65.85;98910.16;4844057;28;122149;-83
2022/04/06 09:00:27;;;;;;;47.67;12.32;;;;;;;13.36;66.14;98898.69;4870288;28;120034;-83
2022/04/06 09:02:53;;;;;;;41.97;11.60;;;;;;;13.40;65.37;98914.91;4855223;28;119656;-84
2022/04/06 09:05:20;;;;;;;29.77;11.30;;;;;;;13.40;66.27;98915.66;4850259;28;119814;-81
2022/04/06 09:07:51;;;;;;;40.60;10.52;;;;;;;13.43;66.31;98911.88;4854268;28;120149;-82
2022/04/06 09:10:31;;;;;;;38.83;11.48;;;;;;;13.40;65.47;98910.16;4873164;28;119946;-83
2022/04/06 09:13:07;;;;;;;48.25;11.32;;;;;;;13.38;65.59;98898.16;4843546;28;122546;-81
2022/04/06 09:15:32;;;;;;;40.85;11.32;;;;;;;13.31;65.46;98915.25;4845748;28;119583;-80
2022/04/06 09:18:02;;;;;;;45.38;12.73;;;;;;;13.21;65.42;98906.53;4823908;28;121971;-83
2022/04/06 09:20:29;;;;;;;41.60;11.85;;;;;;;13.27;65.57;98912.78;4833786;28;123566;-83
2022/04/06 09:22:55;;;;;;;35.80;11.38;;;;;;;13.33;65.56;98910.72;4851686;28;120253;-82
2022/04/06 09:25:21;;;;;;;36.78;11.18;;;;;;;13.38;65.25;98923.69;4848677;28;119539;-83
2022/04/06 09:27:47;;;;;;;37.03;10.90;;;;;;;13.38;66.08;98915.44;4834914;28;122884;-84
2022/04/06 09:30:16;;;;;;;34.85;10.35;;;;;;;13.37;66.25;98927.72;4853094;28;119923;-83
2022/04/06 09:32:42;;;;;;;44.53;11.95;;;;;;;13.42;65.90;98926.16;4854099;28;123613;-84
2022/04/06 09:35:28;;;;;;;41.22;12.07;;;;;;;13.35;66.31;98919.22;4857086;28;123074;-84
2022/04/06 09:38:32;;;;;;;40.08;10.75;;;;;;;13.42;66.16;98918.66;4824172;28;120958;-82
2022/04/06 09:41:03;;;;;;;37.57;12.03;;;;;;;13.39;65.83;98935.47;4875355;28;120397;-84
2022/04/06 09:43:31;;;;;;;43.78;11.60;;;;;;;13.33;65.78;98926.50;4839811;28;120662;-84
2022/04/06 09:49:18;;;;;;;40.47;11.45;;;;;;;13.38;65.58;98923.69;4840034;28;123198;-80
2022/04/06 09:51:46;;;;;;;41.92;11.57;;;;;;;13.36;65.36;98920.72;4842754;28;119710;-82
2022/04/06 09:54:13;;;;;;;50.03;12.20;;;;;;;13.27;65.89;98910.03;4858301;28;119847;-82
2022/04/06 09:56:40;;;;;;;38.72;11.68;;;;;;;13.34;65.97;98911.47;4839079;28;122813;-82
2022/04/06 09:59:07;;;;;;;47.10;12.00;;;;;;;13.34;65.93;98916.97;4862718;28;119904;-82
2022/04/06 10:01:35;;;;;;;35.05;11.02;;;;;;;13.40;66.15;98912.91;4841468;28;119904;-82
2022/04/06 10:04:10;;;;;;;34.60;10.68;;;;;;;13.44;66.08;98909.88;4864532;28;119805;-83
2022/04/06 10:06:37;;;;;;;38.80;11.32;;;;;;;13.43;66.00;98906.38;4830583;28;119734;-82
2022/04/06 10:09:06;;;;;;;38.95;10.70;;;;;;;13.48;66.02;98911.09;4857484;28;122292;-82
2022/04/06 10:11:36;;;;;;;41.53;11.48;;;;;;;13.47;65.93;98922.63;4825378;28;120045;-82
2022/04/06 10:14:04;;;;;;;43.25;11.73;;;;;;;13.43;65.82;98922.91;4824293;28;119887;-84
2022/04/06 10:16:31;;;;;;;39.95;11.95;;;;;;;13.43;65.70;98911.13;4840292;28;123572;-83
2022/04/06 10:18:58;;;;;;;49.67;12.32;;;;;;;13.37;65.54;98913.19;4851904;28;119977;-82
2022/04/06 10:21:26;;;;;;;40.53;12.00;;;;;;;13.41;65.94;98913.66;4834760;28;122458;-82
2022/04/06 10:24:01;;;;;;;43.63;12.18;;;;;;;13.39;65.71;98919.69;4815042;28;120996;-81
2022/04/06 10:26:30;;;;;;;35.10;10.75;;;;;;;13.37;66.08;98922.19;4818924;28;122574;-82
2022/04/06 10:28:55;;;;;;;41.78;12.90;;;;;;;13.39;66.45;98916.94;4822453;28;122505;-82
2022/04/06 10:31:25;;;;;;;47.20;11.55;;;;;;;13.44;66.18;98913.38;4838079;28;120089;-82
2022/04/06 10:34:24;;;;;;;45.20;11.57;;;;;;;13.46;65.49;98921.88;4838887;28;121656;-80
2022/04/06 10:37:07;;;;;;;42.58;12.05;;;;;;;13.43;65.77;98900.13;4854137;28;122404;-81
2022/04/06 10:39:53;;;;;;;32.80;10.68;;;;;;;13.41;66.07;98914.41;4853638;28;120209;-81
2022/04/06 10:42:28;;;;;;;45.30;11.80;;;;;;;13.46;65.33;98916.38;4845722;28;119829;-81
2022/04/06 10:44:55;;;;;;;45.03;11.35;;;;;;;13.37;65.86;98886.41;4853419;28;123016;-81
2022/04/06 10:47:22;;;;;;;45.22;12.25;;;;;;;13.45;65.84;98903.13;4868595;28;120374;-81
2022/04/06 10:50:13;;;;;;;45.42;12.30;;;;;;;13.44;65.66;98913.38;4835519;28;121477;-80
2022/04/06 10:52:39;;;;;;;37.53;11.63;;;;;;;13.37;66.22;98902.94;4837642;28;119926;-83
2022/04/06 10:55:31;;;;;;;38.50;10.70;;;;;;;13.38;66.29;98904.41;4850717;28;120024;-81
2022/04/06 10:58:01;;;;;;;40.30;10.48;;;;;;;13.36;66.50;98895.94;4867033;28;120138;-83
2022/04/06 11:00:30;;;;;;;31.15;9.20;;;;;;;13.31;66.64;98895.97;4838377;28;119777;-80
2022/04/06 11:03:18;;;;;;;32.95;9.23;;;;;;;13.42;66.61;98895.88;4852624;28;121526;-83
2022/04/06 11:05:52;;;;;;;29.63;9.00;;;;;;;13.46;66.62;98888.81;4837586;28;123037;-84
2022/04/06 11:11:45;;;;;;;36.78;10.40;;;;;;;13.36;66.71;98879.41;4852888;28;123240;-82
2022/04/06 11:14:29;;;;;;;35.67;8.82;;;;;;;13.36;66.55;98884.91;4852445;28;120016;-83
2022/04/06 11:16:54;;;;;;;37.42;8.70;;;;;;;13.33;66.92;98863.91;4838450;28;122093;-81
2022/04/06 11:19:20;;;;;;;29.77;8.90;;;;;;;13.39;66.75;98877.63;4852975;28;123698;-82
2022/04/06 11:21:54;;;;;;;25.73;8.60;;;;;;;13.44;66.64;98893.34;4838447;28;120067;-83
2022/04/06 11:24:31;;;;;;;23.75;8.27;;;;;;;13.33;66.90;98868.69;4837795;28;122421;-81
2022/04/06 11:26:56;;;;;;;22.30;8.63;;;;;;;13.44;67.21;98885.84;4837888;28;123250;-82
2022/04/06 11:29:26;;;;;;;21.05;7.38;;;;;;;13.44;66.81;98874.81;4857760;28;120190;-82
2022/04/06 11:31:58;;;;;;;18.13;6.40;;;;;;;13.42;66.71;98874.59;4820048;28;124184;-83
2022/04/06 11:34:38;;;;;;;20.30;7.30;;;;;;;13.35;66.88;98869.66;4851038;28;120653;-82